createdAt,value
2018-07-17T00:00:32.707Z,1005.65
2018-07-17T00:01:32.704Z,1005.69
2018-07-17T00:02:32.749Z,1005.60
2018-07-17T00:03:32.677Z,1005.70
2018-07-17T00:04:32.669Z,1005.69
2018-07-17T00:05:32.655Z,1005.67
2018-07-17T00:06:32.641Z,1005.61
2018-07-17T00:07:32.694Z,1005.62
2018-07-17T00:08:32.621Z,1005.59
2018-07-17T00:09:32.639Z,1005.68
2018-07-17T00:10:32.600Z,1005.64
2018-07-17T00:11:32.588Z,1005.71
2018-07-17T00:12:32.638Z,1005.72
2018-07-17T00:13:32.571Z,1005.66
2018-07-17T00:14:32.555Z,1005.68
2018-07-17T00:15:32.541Z,1005.74
2018-07-17T00:16:32.533Z,1005.73
2018-07-17T00:17:32.585Z,1005.73
2018-07-17T00:18:32.514Z,1005.69
2018-07-17T00:19:33.406Z,1005.69
2018-07-17T00:20:32.491Z,1005.69
2018-07-17T00:21:32.481Z,1005.72
2018-07-17T00:22:32.530Z,1005.72
2018-07-17T00:23:32.456Z,1005.72
2018-07-17T00:24:32.448Z,1005.75
2018-07-17T00:25:32.434Z,1005.69
2018-07-17T00:26:32.423Z,1005.74
2018-07-17T00:27:32.477Z,1005.76
2018-07-17T00:28:32.403Z,1005.76
2018-07-17T00:29:32.408Z,1005.74
2018-07-17T00:30:32.381Z,1005.70
2018-07-17T00:31:32.370Z,1005.72
2018-07-17T00:32:32.430Z,1005.75
2018-07-17T00:33:32.358Z,1005.71
2018-07-17T00:34:32.333Z,1005.73
2018-07-17T00:35:32.328Z,1005.65
2018-07-17T00:36:32.316Z,1005.72
2018-07-17T00:37:32.378Z,1005.66
2018-07-17T00:38:32.290Z,1005.72
2018-07-17T00:39:32.281Z,1005.70
2018-07-17T00:40:32.914Z,1005.66
2018-07-17T00:41:32.267Z,1005.66
2018-07-17T00:42:32.317Z,1005.62
2018-07-17T00:43:32.240Z,1005.67
2018-07-17T00:44:32.232Z,1005.58
2018-07-17T00:45:32.225Z,1005.61
2018-07-17T00:46:32.207Z,1005.58
2018-07-17T00:47:32.257Z,1005.56
2018-07-17T00:48:32.185Z,1005.56
2018-07-17T00:49:32.174Z,1005.58
2018-07-17T00:50:32.162Z,1005.61
2018-07-17T00:51:32.151Z,1005.54
2018-07-17T00:52:32.212Z,1005.61
2018-07-17T00:53:32.145Z,1005.52
2018-07-17T00:54:32.120Z,1005.58
2018-07-17T00:55:32.136Z,1005.58
2018-07-17T00:56:32.104Z,1005.56
2018-07-17T00:57:32.148Z,1005.49
2018-07-17T00:58:32.075Z,1005.47
2018-07-17T00:59:32.060Z,1005.51
2018-07-17T01:00:32.050Z,1005.50
2018-07-17T01:01:32.910Z,1005.58
2018-07-17T01:02:32.107Z,1005.50
2018-07-17T01:03:32.024Z,1005.52
2018-07-17T01:04:32.016Z,1005.49
2018-07-17T01:05:32.002Z,1005.57
2018-07-17T01:06:31.991Z,1005.49
2018-07-17T01:07:32.046Z,1005.50
2018-07-17T01:08:31.977Z,1005.48
2018-07-17T01:09:31.959Z,1005.52
2018-07-17T01:10:31.947Z,1005.50
2018-07-17T01:11:31.999Z,1005.51
2018-07-17T01:12:31.922Z,1005.58
2018-07-17T01:13:31.979Z,1005.56
2018-07-17T01:14:31.908Z,1005.60
2018-07-17T01:15:31.902Z,1005.55
2018-07-17T01:16:31.886Z,1005.58
2018-07-17T01:17:31.872Z,1005.51
2018-07-17T01:18:31.930Z,1005.50
2018-07-17T01:19:31.848Z,1005.55
2018-07-17T01:20:31.844Z,1005.50
2018-07-17T01:21:31.831Z,1005.48
2018-07-17T01:22:33.422Z,1005.53
2018-07-17T01:23:31.870Z,1005.53
2018-07-17T01:24:31.800Z,1005.49
2018-07-17T01:25:31.786Z,1005.55
2018-07-17T01:26:31.776Z,1005.54
2018-07-17T01:27:31.764Z,1005.51
2018-07-17T01:28:31.815Z,1005.54
2018-07-17T01:29:31.743Z,1005.54
2018-07-17T01:30:31.728Z,1005.61
2018-07-17T01:31:31.718Z,1005.61
2018-07-17T01:32:31.709Z,1005.58
2018-07-17T01:33:31.759Z,1005.59
2018-07-17T01:34:31.687Z,1005.56
2018-07-17T01:35:31.676Z,1005.58
2018-07-17T01:36:31.665Z,1005.56
2018-07-17T01:37:31.659Z,1005.51
2018-07-17T01:38:31.740Z,1005.57
2018-07-17T01:39:31.638Z,1005.60
2018-07-17T01:40:31.623Z,1005.61
2018-07-17T01:41:31.612Z,1005.59
2018-07-17T01:42:31.606Z,1005.65
2018-07-17T01:43:31.979Z,1005.61
2018-07-17T01:44:31.581Z,1005.56
2018-07-17T01:45:31.570Z,1005.58
2018-07-17T01:46:31.559Z,1005.65
2018-07-17T01:47:31.549Z,1005.63
2018-07-17T01:48:31.600Z,1005.60
2018-07-17T01:49:31.526Z,1005.61
2018-07-17T01:50:31.515Z,1005.60
2018-07-17T01:51:31.511Z,1005.61
2018-07-17T01:52:31.501Z,1005.63
2018-07-17T01:53:31.550Z,1005.62
2018-07-17T01:54:31.474Z,1005.62
2018-07-17T01:55:31.462Z,1005.65
2018-07-17T01:56:31.451Z,1005.69
2018-07-17T01:57:31.443Z,1005.72
2018-07-17T01:58:31.498Z,1005.76
2018-07-17T01:59:31.418Z,1005.73
2018-07-17T02:00:31.408Z,1005.72
2018-07-17T02:01:31.401Z,1005.74
2018-07-17T02:02:31.393Z,1005.65
2018-07-17T02:03:31.443Z,1005.65
2018-07-17T02:04:31.906Z,1005.55
2018-07-17T02:05:31.357Z,1005.55
2018-07-17T02:06:31.354Z,1005.60
2018-07-17T02:07:31.335Z,1005.59
2018-07-17T02:08:31.388Z,1005.56
2018-07-17T02:09:31.313Z,1005.56
2018-07-17T02:10:31.305Z,1005.56
2018-07-17T02:11:31.294Z,1005.59
2018-07-17T02:12:31.285Z,1005.57
2018-07-17T02:13:31.335Z,1005.51
2018-07-17T02:14:31.260Z,1005.55
2018-07-17T02:15:31.250Z,1005.60
2018-07-17T02:16:31.238Z,1005.54
2018-07-17T02:17:31.227Z,1005.62
2018-07-17T02:18:31.283Z,1005.59
2018-07-17T02:19:31.207Z,1005.58
2018-07-17T02:20:31.199Z,1005.62
2018-07-17T02:21:31.185Z,1005.61
2018-07-17T02:22:31.174Z,1005.64
2018-07-17T02:23:31.225Z,1005.61
2018-07-17T02:24:31.153Z,1005.58
2018-07-17T02:25:31.899Z,1005.62
2018-07-17T02:26:31.131Z,1005.60
2018-07-17T02:27:31.119Z,1005.56
2018-07-17T02:28:31.173Z,1005.56
2018-07-17T02:29:31.100Z,1005.48
2018-07-17T02:30:31.090Z,1005.55
2018-07-17T02:31:31.078Z,1005.50
2018-07-17T02:32:31.066Z,1005.53
2018-07-17T02:33:31.114Z,1005.44
2018-07-17T02:34:31.050Z,1005.54
2018-07-17T02:35:31.033Z,1005.45
2018-07-17T02:36:31.022Z,1005.48
2018-07-17T02:37:31.020Z,1005.48
2018-07-17T02:38:31.063Z,1005.49
2018-07-17T02:39:30.991Z,1005.45
2018-07-17T02:40:30.978Z,1005.47
2018-07-17T02:41:30.967Z,1005.39
2018-07-17T02:42:30.972Z,1005.44
2018-07-17T02:43:31.008Z,1005.43
2018-07-17T02:44:30.934Z,1005.38
2018-07-17T02:45:30.992Z,1005.39
2018-07-17T02:46:31.906Z,1005.44
2018-07-17T02:47:30.903Z,1005.45
2018-07-17T02:48:30.962Z,1005.38
2018-07-17T02:49:30.882Z,1005.42
2018-07-17T02:50:30.872Z,1005.42
2018-07-17T02:51:30.859Z,1005.37
2018-07-17T02:52:30.845Z,1005.42
2018-07-17T02:53:30.933Z,1005.37
2018-07-17T02:54:30.890Z,1005.41
2018-07-17T02:55:30.815Z,1005.32
2018-07-17T02:56:39.429Z,1005.33
2018-07-17T02:57:38.332Z,1005.38
2018-07-17T02:58:39.712Z,1005.34
2018-07-17T02:59:30.773Z,1005.35
2018-07-17T03:00:30.760Z,1005.33
2018-07-17T03:01:30.755Z,1005.32
2018-07-17T03:02:30.741Z,1005.37
2018-07-17T03:03:30.732Z,1005.41
2018-07-17T03:04:38.320Z,1005.43
2018-07-17T03:05:38.872Z,1005.46
2018-07-17T03:06:38.784Z,1005.52
2018-07-17T03:07:39.302Z,1005.49
2018-07-17T03:08:30.677Z,1005.58
2018-07-17T03:09:30.734Z,1005.54
2018-07-17T03:10:30.655Z,1005.56
2018-07-17T03:11:30.646Z,1005.54
2018-07-17T03:12:30.646Z,1005.54
2018-07-17T03:13:30.625Z,1005.57
2018-07-17T03:14:30.674Z,1005.61
2018-07-17T03:15:30.600Z,1005.56
2018-07-17T03:16:30.590Z,1005.60
2018-07-17T03:17:30.580Z,1005.61
2018-07-17T03:18:30.569Z,1005.63
2018-07-17T03:19:30.619Z,1005.67
2018-07-17T03:20:30.547Z,1005.67
2018-07-17T03:21:30.549Z,1005.67
2018-07-17T03:22:30.527Z,1005.64
2018-07-17T03:23:30.518Z,1005.68
2018-07-17T03:24:30.588Z,1005.68
2018-07-17T03:25:30.491Z,1005.68
2018-07-17T03:26:30.480Z,1005.70
2018-07-17T03:27:30.472Z,1005.73
2018-07-17T03:28:30.459Z,1005.76
2018-07-17T03:29:30.722Z,1005.77
2018-07-17T03:30:30.442Z,1005.77
2018-07-17T03:31:30.430Z,1005.78
2018-07-17T03:32:30.433Z,1005.83
2018-07-17T03:33:30.421Z,1005.89
2018-07-17T03:34:30.465Z,1005.91
2018-07-17T03:35:30.394Z,1005.84
2018-07-17T03:36:30.393Z,1005.92
2018-07-17T03:37:30.364Z,1005.94
2018-07-17T03:38:30.356Z,1005.87
2018-07-17T03:39:30.411Z,1005.88
2018-07-17T03:40:30.336Z,1005.85
2018-07-17T03:41:30.320Z,1005.85
2018-07-17T03:42:30.312Z,1005.89
2018-07-17T03:43:30.311Z,1005.85
2018-07-17T03:44:30.356Z,1005.91
2018-07-17T03:45:30.276Z,1005.92
2018-07-17T03:46:30.282Z,1006.00
2018-07-17T03:47:30.262Z,1006.04
2018-07-17T03:48:30.246Z,1006.06
2018-07-17T03:49:30.300Z,1006.16
2018-07-17T03:50:32.145Z,1006.12
2018-07-17T03:51:30.220Z,1006.08
2018-07-17T03:52:30.204Z,1006.11
2018-07-17T03:53:30.201Z,1006.12
2018-07-17T03:54:30.243Z,1006.12
2018-07-17T03:55:30.176Z,1006.09
2018-07-17T03:56:30.160Z,1006.07
2018-07-17T03:57:30.149Z,1006.09
2018-07-17T03:58:30.145Z,1006.09
2018-07-17T03:59:30.195Z,1006.10
2018-07-17T04:00:30.118Z,1006.20
2018-07-17T04:01:30.105Z,1006.17
2018-07-17T04:02:30.093Z,1006.24
2018-07-17T04:03:30.082Z,1006.24
2018-07-17T04:04:30.132Z,1006.28
2018-07-17T04:05:30.071Z,1006.30
2018-07-17T04:06:30.049Z,1006.26
2018-07-17T04:07:30.046Z,1006.25
2018-07-17T04:08:30.030Z,1006.20
2018-07-17T04:09:30.082Z,1006.19
2018-07-17T04:10:30.009Z,1006.16
2018-07-17T04:11:30.007Z,1006.26
2018-07-17T04:12:32.646Z,1006.20
2018-07-17T04:13:30.093Z,1006.21
2018-07-17T04:14:30.035Z,1006.19
2018-07-17T04:15:29.955Z,1006.22
2018-07-17T04:16:29.941Z,1006.18
2018-07-17T04:17:29.932Z,1006.20
2018-07-17T04:18:29.921Z,1006.19
2018-07-17T04:19:29.979Z,1006.16
2018-07-17T04:20:29.899Z,1006.21
2018-07-17T04:21:29.888Z,1006.15
2018-07-17T04:22:29.877Z,1006.20
2018-07-17T04:23:29.887Z,1006.24
2018-07-17T04:24:29.923Z,1006.14
2018-07-17T04:25:29.844Z,1006.17
2018-07-17T04:26:29.833Z,1006.22
2018-07-17T04:27:29.840Z,1006.23
2018-07-17T04:28:29.813Z,1006.27
2018-07-17T04:29:29.874Z,1006.32
2018-07-17T04:30:29.794Z,1006.27
2018-07-17T04:31:29.783Z,1006.25
2018-07-17T04:32:29.772Z,1006.31
2018-07-17T04:33:29.761Z,1006.28
2018-07-17T04:34:30.219Z,1006.25
2018-07-17T04:35:29.739Z,1006.29
2018-07-17T04:36:29.728Z,1006.27
2018-07-17T04:37:29.719Z,1006.27
2018-07-17T04:38:29.778Z,1006.31
2018-07-17T04:39:29.761Z,1006.33
2018-07-17T04:40:29.747Z,1006.32
2018-07-17T04:41:29.680Z,1006.39
2018-07-17T04:42:29.664Z,1006.40
2018-07-17T04:43:29.653Z,1006.41
2018-07-17T04:44:30.144Z,1006.47
2018-07-17T04:45:29.703Z,1006.45
2018-07-17T04:46:29.623Z,1006.43
2018-07-17T04:47:29.609Z,1006.41
2018-07-17T04:48:29.598Z,1006.44
2018-07-17T04:49:29.591Z,1006.53
2018-07-17T04:50:29.647Z,1006.55
2018-07-17T04:51:29.567Z,1006.57
2018-07-17T04:52:29.560Z,1006.48
2018-07-17T04:53:29.551Z,1006.50
2018-07-17T04:54:29.536Z,1006.53
2018-07-17T04:55:29.724Z,1006.49
2018-07-17T04:56:29.518Z,1006.54
2018-07-17T04:57:29.505Z,1006.55
2018-07-17T04:58:29.495Z,1006.51
2018-07-17T04:59:29.484Z,1006.51
2018-07-17T05:00:29.540Z,1006.59
2018-07-17T05:01:29.519Z,1006.65
2018-07-17T05:02:29.451Z,1006.63
2018-07-17T05:03:29.443Z,1006.59
2018-07-17T05:04:29.432Z,1006.52
2018-07-17T05:05:29.497Z,1006.58
2018-07-17T05:06:29.407Z,1006.50
2018-07-17T05:07:29.400Z,1006.52
2018-07-17T05:08:29.384Z,1006.55
2018-07-17T05:09:29.381Z,1006.49
2018-07-17T05:10:29.426Z,1006.54
2018-07-17T05:11:29.381Z,1006.58
2018-07-17T05:12:29.448Z,1006.59
2018-07-17T05:13:29.377Z,1006.56
2018-07-17T05:14:29.424Z,1006.62
2018-07-17T05:15:29.394Z,1006.62
2018-07-17T05:16:30.168Z,1006.64
2018-07-17T05:17:29.289Z,1006.62
2018-07-17T05:18:29.278Z,1006.62
2018-07-17T05:19:29.276Z,1006.59
2018-07-17T05:20:29.323Z,1006.65
2018-07-17T05:21:29.248Z,1006.59
2018-07-17T05:22:29.239Z,1006.63
2018-07-17T05:23:29.223Z,1006.66
2018-07-17T05:24:29.214Z,1006.60
2018-07-17T05:25:29.269Z,1006.64
2018-07-17T05:26:29.190Z,1006.61
2018-07-17T05:27:29.179Z,1006.64
2018-07-17T05:28:29.168Z,1006.60
2018-07-17T05:29:29.153Z,1006.67
2018-07-17T05:30:29.214Z,1006.74
2018-07-17T05:31:29.145Z,1006.74
2018-07-17T05:32:29.128Z,1006.75
2018-07-17T05:33:29.119Z,1006.73
2018-07-17T05:34:29.103Z,1006.70
2018-07-17T05:35:29.221Z,1006.73
2018-07-17T05:36:29.090Z,1006.71
2018-07-17T05:37:29.635Z,1006.68
2018-07-17T05:38:29.056Z,1006.74
2018-07-17T05:39:29.048Z,1006.75
2018-07-17T05:40:29.108Z,1006.74
2018-07-17T05:41:29.029Z,1006.76
2018-07-17T05:42:29.022Z,1006.82
2018-07-17T05:43:29.010Z,1006.78
2018-07-17T05:44:28.998Z,1006.77
2018-07-17T05:45:29.047Z,1006.80
2018-07-17T05:46:29.047Z,1006.85
2018-07-17T05:47:28.965Z,1006.82
2018-07-17T05:48:28.953Z,1006.85
2018-07-17T05:49:28.948Z,1006.86
2018-07-17T05:50:28.997Z,1006.86
2018-07-17T05:51:28.923Z,1006.88
2018-07-17T05:52:28.920Z,1006.78
2018-07-17T05:53:28.903Z,1006.83
2018-07-17T05:54:28.890Z,1006.89
2018-07-17T05:55:28.941Z,1006.91
2018-07-17T05:56:28.868Z,1006.92
2018-07-17T05:57:28.868Z,1006.85
2018-07-17T05:58:29.642Z,1006.92
2018-07-17T05:59:28.837Z,1006.88
2018-07-17T06:00:28.893Z,1006.89
2018-07-17T06:01:28.818Z,1006.89
2018-07-17T06:02:28.807Z,1006.88
2018-07-17T06:03:28.837Z,1006.92
2018-07-17T06:04:28.782Z,1006.90
2018-07-17T06:05:28.835Z,1006.97
2018-07-17T06:06:28.760Z,1006.93
2018-07-17T06:07:28.748Z,1007.01
2018-07-17T06:08:28.735Z,1006.98
2018-07-17T06:09:28.730Z,1006.98
2018-07-17T06:10:28.783Z,1006.99
2018-07-17T06:11:28.710Z,1006.95
2018-07-17T06:12:28.697Z,1006.97
2018-07-17T06:13:28.690Z,1006.99
2018-07-17T06:14:28.680Z,1007.01
2018-07-17T06:15:28.740Z,1007.05
2018-07-17T06:16:28.656Z,1007.01
2018-07-17T06:17:28.679Z,1007.06
2018-07-17T06:18:28.638Z,1007.00
2018-07-17T06:19:33.141Z,1007.04
2018-07-17T06:20:28.678Z,1007.09
2018-07-17T06:21:28.664Z,1007.07
2018-07-17T06:22:36.797Z,1007.07
2018-07-17T06:23:28.668Z,1007.09
2018-07-17T06:24:28.674Z,1007.06
2018-07-17T06:25:28.569Z,1007.11
2018-07-17T06:26:28.620Z,1007.14
2018-07-17T06:27:36.874Z,1007.16
2018-07-17T06:28:28.539Z,1007.19
2018-07-17T06:29:28.517Z,1007.18
2018-07-17T06:30:28.533Z,1007.18
2018-07-17T06:31:28.557Z,1007.16
2018-07-17T06:32:28.527Z,1007.18
2018-07-17T06:33:28.473Z,1007.09
2018-07-17T06:34:28.464Z,1007.20
2018-07-17T06:35:28.457Z,1007.20
2018-07-17T06:36:28.509Z,1007.17
2018-07-17T06:37:37.153Z,1007.23
2018-07-17T06:38:39.198Z,1007.23
2018-07-17T06:39:37.588Z,1007.24
2018-07-17T06:40:28.519Z,1007.25
2018-07-17T06:41:28.508Z,1007.23
2018-07-17T06:42:28.403Z,1007.23
2018-07-17T06:43:28.370Z,1007.31
2018-07-17T06:44:28.387Z,1007.31
2018-07-17T06:45:37.904Z,1007.33
2018-07-17T06:46:28.488Z,1007.36
2018-07-17T06:47:28.421Z,1007.37
2018-07-17T06:48:28.437Z,1007.36
2018-07-17T06:49:36.490Z,1007.24
2018-07-17T06:50:28.430Z,1007.36
2018-07-17T06:51:28.352Z,1007.22
2018-07-17T06:52:36.372Z,1007.13
2018-07-17T06:53:28.264Z,1007.16
2018-07-17T06:54:28.255Z,1007.26
2018-07-17T06:55:28.244Z,1007.13
2018-07-17T06:56:28.302Z,1007.06
2018-07-17T06:57:28.305Z,1007.13
2018-07-17T06:58:36.341Z,1007.10
2018-07-17T06:59:41.352Z,1007.22
2018-07-17T07:00:28.279Z,1007.29
2018-07-17T07:01:28.332Z,1007.25
2018-07-17T07:02:35.810Z,1007.12
2018-07-17T07:03:28.167Z,1007.14
2018-07-17T07:04:28.158Z,1007.16
2018-07-17T07:05:29.015Z,1007.14
2018-07-17T07:06:28.196Z,1007.20
2018-07-17T07:07:28.119Z,1007.31
2018-07-17T07:08:28.111Z,1007.45
2018-07-17T07:09:28.100Z,1007.42
2018-07-17T07:10:28.088Z,1007.46
2018-07-17T07:11:28.168Z,1007.52
2018-07-17T07:12:28.069Z,1007.52
2018-07-17T07:13:28.095Z,1007.52
2018-07-17T07:14:28.071Z,1007.53
2018-07-17T07:15:28.040Z,1007.35
2018-07-17T07:16:28.096Z,1007.35
2018-07-17T07:17:28.022Z,1007.36
2018-07-17T07:18:28.008Z,1007.36
2018-07-17T07:19:27.997Z,1007.43
2018-07-17T07:20:27.994Z,1007.33
2018-07-17T07:21:28.041Z,1007.42
2018-07-17T07:22:27.980Z,1007.27
2018-07-17T07:23:28.044Z,1007.18
2018-07-17T07:24:28.527Z,1007.26
2018-07-17T07:25:27.939Z,1007.14
2018-07-17T07:26:27.996Z,1007.24
2018-07-17T07:27:27.914Z,1007.30
2018-07-17T07:28:27.906Z,1007.32
2018-07-17T07:29:27.894Z,1007.53
2018-07-17T07:30:27.881Z,1007.58
2018-07-17T07:31:27.939Z,1007.59
2018-07-17T07:32:27.867Z,1007.58
2018-07-17T07:33:27.856Z,1007.61
2018-07-17T07:34:27.845Z,1007.65
2018-07-17T07:35:27.833Z,1007.54
2018-07-17T07:36:27.889Z,1007.63
2018-07-17T07:37:27.901Z,1007.67
2018-07-17T07:38:27.806Z,1007.64
2018-07-17T07:39:27.799Z,1007.75
2018-07-17T07:40:27.786Z,1007.45
2018-07-17T07:41:27.840Z,1007.47
2018-07-17T07:42:27.775Z,1007.47
2018-07-17T07:43:27.758Z,1007.35
2018-07-17T07:44:27.744Z,1007.34
2018-07-17T07:45:28.521Z,1007.31
2018-07-17T07:46:27.791Z,1007.46
2018-07-17T07:47:27.721Z,1007.32
2018-07-17T07:48:27.708Z,1007.37
2018-07-17T07:49:27.732Z,1007.38
2018-07-17T07:50:27.686Z,1007.35
2018-07-17T07:51:27.755Z,1007.36
2018-07-17T07:52:27.672Z,1007.27
2018-07-17T07:53:27.668Z,1007.35
2018-07-17T07:54:27.663Z,1007.24
2018-07-17T07:55:27.664Z,1007.26
2018-07-17T07:56:27.697Z,1007.24
2018-07-17T07:57:27.614Z,1007.32
2018-07-17T07:58:27.612Z,1007.34
2018-07-17T07:59:27.614Z,1007.34
2018-07-17T08:00:27.587Z,1007.34
2018-07-17T08:01:27.648Z,1007.34
2018-07-17T08:02:27.567Z,1007.33
2018-07-17T08:03:27.613Z,1007.38
2018-07-17T08:04:27.546Z,1007.37
2018-07-17T08:05:27.537Z,1007.40
2018-07-17T08:06:29.515Z,1007.48
2018-07-17T08:07:27.587Z,1007.44
2018-07-17T08:08:27.504Z,1007.52
2018-07-17T08:09:27.493Z,1007.42
2018-07-17T08:10:27.485Z,1007.73
2018-07-17T08:11:27.477Z,1007.77
2018-07-17T08:12:27.542Z,1007.89
2018-07-17T08:13:27.457Z,1007.88
2018-07-17T08:14:27.448Z,1007.93
2018-07-17T08:15:27.437Z,1007.94
2018-07-17T08:16:27.432Z,1007.97
2018-07-17T08:17:27.485Z,1008.00
2018-07-17T08:18:27.410Z,1007.97
2018-07-17T08:19:27.399Z,1008.03
2018-07-17T08:20:27.393Z,1008.10
2018-07-17T08:21:27.387Z,1008.01
2018-07-17T08:22:27.473Z,1007.94
2018-07-17T08:23:27.362Z,1008.02
2018-07-17T08:24:27.411Z,1007.98
2018-07-17T08:25:27.349Z,1007.93
2018-07-17T08:26:27.337Z,1007.86
2018-07-17T08:27:27.591Z,1007.90
2018-07-17T08:28:27.315Z,1007.85
2018-07-17T08:29:27.327Z,1007.91
2018-07-17T08:30:27.391Z,1007.83
2018-07-17T08:31:27.290Z,1007.84
2018-07-17T08:32:27.340Z,1007.94
2018-07-17T08:33:27.270Z,1007.92
2018-07-17T08:34:27.259Z,1007.96
2018-07-17T08:35:27.259Z,1008.13
2018-07-17T08:36:27.237Z,1008.14
2018-07-17T08:37:27.298Z,1008.08
2018-07-17T08:38:27.223Z,1007.89
2018-07-17T08:39:27.212Z,1007.72
2018-07-17T08:40:27.217Z,1007.64
2018-07-17T08:41:27.222Z,1007.68
2018-07-17T08:42:27.247Z,1007.77
2018-07-17T08:43:27.327Z,1007.62
2018-07-17T08:44:27.183Z,1007.58
2018-07-17T08:45:27.179Z,1007.66
2018-07-17T08:46:27.153Z,1007.69
2018-07-17T08:47:27.195Z,1008.05
2018-07-17T08:48:28.017Z,1008.06
2018-07-17T08:49:27.116Z,1008.11
2018-07-17T08:50:27.114Z,1008.11
2018-07-17T08:51:27.098Z,1008.13
2018-07-17T08:52:27.590Z,1008.15
2018-07-17T08:53:27.078Z,1008.19
2018-07-17T08:54:27.079Z,1008.24
2018-07-17T08:55:27.064Z,1008.23
2018-07-17T08:56:27.053Z,1008.24
2018-07-17T08:57:27.126Z,1008.26
2018-07-17T08:58:27.036Z,1008.21
2018-07-17T08:59:27.033Z,1008.28
2018-07-17T09:00:27.114Z,1008.32
2018-07-17T09:01:27.014Z,1008.32
2018-07-17T09:02:27.069Z,1008.36
2018-07-17T09:03:26.996Z,1008.35
2018-07-17T09:04:26.985Z,1008.28
2018-07-17T09:05:26.980Z,1008.34
2018-07-17T09:06:26.970Z,1008.28
2018-07-17T09:07:27.025Z,1008.29
2018-07-17T09:08:26.949Z,1008.25
2018-07-17T09:09:27.518Z,1008.27
2018-07-17T09:10:26.933Z,1008.26
2018-07-17T09:11:26.932Z,1008.34
2018-07-17T09:12:26.991Z,1008.31
2018-07-17T09:13:26.908Z,1008.33
2018-07-17T09:14:26.905Z,1008.38
2018-07-17T09:15:26.897Z,1008.38
2018-07-17T09:16:26.903Z,1008.39
2018-07-17T09:17:26.940Z,1008.45
2018-07-17T09:18:26.869Z,1008.42
2018-07-17T09:19:26.863Z,1008.41
2018-07-17T09:20:26.852Z,1008.45
2018-07-17T09:21:26.903Z,1008.46
2018-07-17T09:22:26.902Z,1008.46
2018-07-17T09:23:26.832Z,1008.44
2018-07-17T09:24:26.824Z,1008.42
2018-07-17T09:25:26.816Z,1008.44
2018-07-17T09:26:26.804Z,1008.43
2018-07-17T09:27:26.865Z,1008.48
2018-07-17T09:28:26.793Z,1008.43
2018-07-17T09:29:26.783Z,1008.46
2018-07-17T09:30:27.510Z,1008.52
2018-07-17T09:31:26.768Z,1008.53
2018-07-17T09:32:26.822Z,1008.59
2018-07-17T09:33:26.783Z,1008.62
2018-07-17T09:34:26.753Z,1008.60
2018-07-17T09:35:26.742Z,1008.63
2018-07-17T09:36:26.726Z,1008.60
2018-07-17T09:37:26.786Z,1008.46
2018-07-17T09:38:27.512Z,1008.58
2018-07-17T09:39:26.706Z,1008.67
2018-07-17T09:40:26.703Z,1008.54
2018-07-17T09:41:26.692Z,1008.57
2018-07-17T09:42:34.634Z,1008.65
2018-07-17T09:43:26.675Z,1008.62
2018-07-17T09:44:26.766Z,1008.67
2018-07-17T09:45:26.666Z,1008.60
2018-07-17T09:46:26.652Z,1008.68
2018-07-17T09:47:26.646Z,1008.72
2018-07-17T09:48:26.704Z,1008.70
2018-07-17T09:49:26.634Z,1008.71
2018-07-17T09:50:26.626Z,1008.76
2018-07-17T09:51:26.618Z,1008.79
2018-07-17T09:52:26.612Z,1008.78
2018-07-17T09:53:26.667Z,1008.80
2018-07-17T09:54:26.673Z,1008.82
2018-07-17T09:55:26.587Z,1008.10
2018-07-17T09:56:26.581Z,1008.04
2018-07-17T09:57:26.575Z,1008.03
2018-07-17T09:58:26.627Z,1008.08
2018-07-17T09:59:26.561Z,1007.95
2018-07-17T10:00:26.550Z,1007.91
2018-07-17T10:01:26.540Z,1007.91
2018-07-17T10:02:26.533Z,1007.87
2018-07-17T10:03:27.121Z,1007.75
2018-07-17T10:04:26.516Z,1007.76
2018-07-17T10:05:26.508Z,1007.71
2018-07-17T10:06:26.595Z,1007.74
2018-07-17T10:07:26.493Z,1007.73
2018-07-17T10:08:26.543Z,1007.75
2018-07-17T10:09:26.477Z,1007.73
2018-07-17T10:10:26.463Z,1007.72
2018-07-17T10:11:26.460Z,1007.72
2018-07-17T10:12:26.446Z,1007.73
2018-07-17T10:13:26.551Z,1007.70
2018-07-17T10:14:26.475Z,1007.75
2018-07-17T10:15:26.418Z,1007.69
2018-07-17T10:16:26.416Z,1007.69
2018-07-17T10:17:26.408Z,1007.71
2018-07-17T10:18:26.452Z,1007.76
2018-07-17T10:19:26.390Z,1007.74
2018-07-17T10:20:26.457Z,1007.77
2018-07-17T10:21:26.361Z,1007.76
2018-07-17T10:22:26.353Z,1007.80
2018-07-17T10:23:26.410Z,1007.87
2018-07-17T10:24:27.041Z,1007.90
2018-07-17T10:25:26.330Z,1007.84
2018-07-17T10:26:26.402Z,1007.78
2018-07-17T10:27:26.305Z,1007.80
2018-07-17T10:28:26.358Z,1007.76
2018-07-17T10:29:26.286Z,1007.71
2018-07-17T10:30:26.275Z,1007.79
2018-07-17T10:31:26.267Z,1007.79
2018-07-17T10:32:26.259Z,1008.01
2018-07-17T10:33:26.345Z,1007.84
2018-07-17T10:34:26.238Z,1007.87
2018-07-17T10:35:33.794Z,1008.28
2018-07-17T10:36:33.743Z,1008.47
2018-07-17T10:37:35.144Z,1008.45
2018-07-17T10:38:33.818Z,1008.46
2018-07-17T10:39:26.194Z,1008.59
2018-07-17T10:40:26.183Z,1008.60
2018-07-17T10:41:26.172Z,1008.60
2018-07-17T10:42:26.161Z,1008.64
2018-07-17T10:43:34.333Z,1008.56
2018-07-17T10:44:35.202Z,1008.70
2018-07-17T10:45:26.141Z,1008.70
2018-07-17T10:46:26.132Z,1008.70
2018-07-17T10:47:34.783Z,1008.70
2018-07-17T10:48:34.830Z,1008.72
2018-07-17T10:49:26.111Z,1008.79
2018-07-17T10:50:26.102Z,1008.79
2018-07-17T10:51:26.094Z,1008.77
2018-07-17T10:52:26.083Z,1008.77
2018-07-17T10:53:26.140Z,1008.78
2018-07-17T10:54:26.069Z,1008.73
2018-07-17T10:55:26.058Z,1008.70
2018-07-17T10:56:26.052Z,1008.75
2018-07-17T10:57:26.044Z,1008.69
2018-07-17T10:58:26.102Z,1008.73
2018-07-17T10:59:26.033Z,1008.75
2018-07-17T11:00:26.023Z,1008.74
2018-07-17T11:01:26.016Z,1008.77
2018-07-17T11:02:26.008Z,1008.72
2018-07-17T11:03:26.068Z,1008.71
2018-07-17T11:04:25.998Z,1008.37
2018-07-17T11:05:26.822Z,1008.57
2018-07-17T11:06:25.981Z,1008.16
2018-07-17T11:07:25.973Z,1008.51
2018-07-17T11:08:26.042Z,1008.64
2018-07-17T11:09:25.959Z,1008.63
2018-07-17T11:10:25.955Z,1008.59
2018-07-17T11:11:25.945Z,1008.61
2018-07-17T11:12:25.947Z,1008.62
2018-07-17T11:13:25.994Z,1008.65
2018-07-17T11:14:25.925Z,1008.64
2018-07-17T11:15:25.919Z,1008.59
2018-07-17T11:16:25.907Z,1008.53
2018-07-17T11:17:25.905Z,1008.57
2018-07-17T11:18:25.960Z,1008.38
2018-07-17T11:19:25.893Z,1008.19
2018-07-17T11:20:25.890Z,1008.62
2018-07-17T11:21:25.879Z,1008.65
2018-07-17T11:22:25.874Z,1008.68
2018-07-17T11:23:25.940Z,1008.66
2018-07-17T11:24:25.859Z,1008.70
2018-07-17T11:25:25.851Z,1008.57
2018-07-17T11:26:26.815Z,1008.55
2018-07-17T11:27:25.842Z,1008.48
2018-07-17T11:28:25.906Z,1008.61
2018-07-17T11:29:25.825Z,1008.55
2018-07-17T11:30:25.820Z,1008.61
2018-07-17T11:31:25.817Z,1008.53
2018-07-17T11:32:25.814Z,1008.57
2018-07-17T11:33:25.877Z,1008.57
2018-07-17T11:34:25.795Z,1008.24
2018-07-17T11:35:25.795Z,1008.61
2018-07-17T11:36:25.786Z,1008.63
2018-07-17T11:37:25.778Z,1008.59
2018-07-17T11:38:25.841Z,1008.60
2018-07-17T11:39:25.768Z,1008.55
2018-07-17T11:40:25.762Z,1008.59
2018-07-17T11:41:25.757Z,1007.92
2018-07-17T11:42:25.760Z,1008.55
2018-07-17T11:43:25.809Z,1008.50
2018-07-17T11:44:25.735Z,1008.50
2018-07-17T11:45:25.729Z,1008.61
2018-07-17T11:46:25.721Z,1008.59
2018-07-17T11:47:27.305Z,1008.59
2018-07-17T11:48:25.779Z,1008.54
2018-07-17T11:49:26.304Z,1008.58
2018-07-17T11:50:25.700Z,1008.54
2018-07-17T11:51:25.694Z,1008.51
2018-07-17T11:52:25.685Z,1007.85
2018-07-17T11:53:25.720Z,1007.73
2018-07-17T11:54:25.755Z,1008.01
2018-07-17T11:55:25.665Z,1008.03
2018-07-17T11:56:25.659Z,1008.10
2018-07-17T11:57:25.656Z,1008.17
2018-07-17T11:58:25.645Z,1008.45
2018-07-17T11:59:25.780Z,1008.38
2018-07-17T12:00:25.645Z,1007.65
2018-07-17T12:01:25.625Z,1007.46
2018-07-17T12:02:25.619Z,1007.48
2018-07-17T12:03:25.619Z,1008.18
2018-07-17T12:04:25.685Z,1008.29
2018-07-17T12:05:25.652Z,1008.25